createdAt,value
2017-08-03T00:00:40.220Z,21.40
2017-08-03T00:03:08.539Z,21.40
2017-08-03T00:05:37.593Z,21.30
2017-08-03T00:08:05.902Z,21.30
2017-08-03T00:10:34.308Z,21.30
2017-08-03T00:13:02.599Z,21.30
2017-08-03T00:15:30.913Z,21.20
2017-08-03T00:17:59.198Z,21.30
2017-08-03T00:20:27.568Z,21.30
2017-08-03T00:22:55.887Z,21.30
2017-08-03T00:25:24.185Z,21.20
2017-08-03T00:27:52.516Z,21.10
2017-08-03T00:30:20.824Z,21.20
2017-08-03T00:32:49.157Z,21.20
2017-08-03T00:35:17.438Z,21.10
2017-08-03T00:37:45.736Z,21.10
2017-08-03T00:40:14.160Z,21.10
2017-08-03T00:42:42.450Z,21.00
2017-08-03T00:45:10.735Z,21.00
2017-08-03T00:47:39.059Z,21.10
2017-08-03T00:50:08.115Z,20.80
2017-08-03T00:52:36.430Z,20.80
2017-08-03T00:55:04.733Z,20.90
2017-08-03T00:57:33.051Z,21.00
2017-08-03T01:00:02.141Z,21.00
2017-08-03T01:02:31.231Z,20.90
2017-08-03T01:04:59.529Z,20.90
2017-08-03T01:07:27.842Z,20.90
2017-08-03T01:09:56.207Z,20.90
2017-08-03T01:12:24.572Z,20.80
2017-08-03T01:14:52.900Z,20.80
2017-08-03T01:17:21.969Z,20.80
2017-08-03T01:19:50.292Z,20.80
2017-08-03T01:22:18.588Z,20.80
2017-08-03T01:24:47.676Z,20.70
2017-08-03T01:27:16.058Z,20.70
2017-08-03T01:29:44.378Z,20.70
2017-08-03T01:32:13.435Z,20.60
2017-08-03T01:34:41.781Z,20.60
2017-08-03T01:37:10.840Z,20.50
2017-08-03T01:39:39.137Z,20.50
2017-08-03T01:42:07.455Z,20.60
2017-08-03T01:44:36.512Z,20.40
2017-08-03T01:47:11.600Z,20.40
2017-08-03T01:49:39.895Z,20.50
2017-08-03T01:52:08.216Z,20.60
2017-08-03T01:54:36.506Z,20.50
2017-08-03T01:57:04.836Z,20.50
2017-08-03T01:59:33.167Z,20.50
2017-08-03T02:02:02.219Z,20.40
2017-08-03T02:04:30.520Z,20.40
2017-08-03T02:06:58.844Z,20.50
2017-08-03T02:09:28.812Z,20.40
2017-08-03T02:11:57.157Z,20.40
2017-08-03T02:14:25.551Z,20.40
2017-08-03T02:16:54.187Z,20.40
2017-08-03T02:19:22.503Z,20.20
2017-08-03T02:21:50.832Z,20.20
2017-08-03T02:24:19.927Z,20.30
2017-08-03T02:26:48.259Z,20.30
2017-08-03T02:29:16.542Z,20.20
2017-08-03T02:31:44.878Z,20.10
2017-08-03T02:34:13.168Z,20.20
2017-08-03T02:36:41.502Z,20.30
2017-08-03T02:39:10.112Z,20.30
2017-08-03T02:41:38.411Z,20.30
2017-08-03T02:44:06.752Z,20.30
2017-08-03T02:46:35.048Z,20.30
2017-08-03T02:49:04.152Z,20.30
2017-08-03T02:51:32.445Z,20.30
2017-08-03T02:54:01.652Z,20.20
2017-08-03T02:56:30.040Z,20.10
2017-08-03T02:58:58.354Z,20.20
2017-08-03T03:01:26.678Z,20.20
2017-08-03T03:03:54.967Z,20.20
2017-08-03T03:06:23.295Z,20.10
2017-08-03T03:08:51.672Z,20.20
2017-08-03T03:11:19.969Z,20.20
2017-08-03T03:13:48.282Z,20.20
2017-08-03T03:16:17.338Z,20.20
2017-08-03T03:18:45.666Z,20.20
2017-08-03T03:21:13.969Z,20.20
2017-08-03T03:23:43.028Z,20.20
2017-08-03T03:26:11.351Z,20.20
2017-08-03T03:28:39.688Z,20.20
2017-08-03T03:31:07.980Z,20.10
2017-08-03T03:33:36.295Z,20.20
2017-08-03T03:36:04.591Z,20.30
2017-08-03T03:38:32.930Z,20.10
2017-08-03T03:41:01.284Z,20.10
2017-08-03T03:43:29.667Z,20.10
2017-08-03T03:45:57.994Z,20.10
2017-08-03T03:48:26.351Z,20.10
2017-08-03T03:50:54.748Z,20.10
2017-08-03T03:53:23.066Z,20.10
2017-08-03T03:55:51.359Z,20.30
2017-08-03T03:58:19.720Z,20.40
2017-08-03T04:00:48.052Z,20.40
2017-08-03T04:03:16.335Z,20.20
2017-08-03T04:05:44.658Z,20.30
2017-08-03T04:08:13.076Z,20.30
2017-08-03T04:10:41.375Z,20.30
2017-08-03T04:13:10.468Z,20.40
2017-08-03T04:15:38.760Z,20.40
2017-08-03T04:18:07.081Z,20.50
2017-08-03T04:20:36.130Z,20.50
2017-08-03T04:23:04.446Z,20.50
2017-08-03T04:25:32.783Z,20.50
2017-08-03T04:28:01.116Z,20.60
2017-08-03T04:30:29.510Z,20.70
2017-08-03T04:32:57.807Z,20.80
2017-08-03T04:35:26.164Z,20.80
2017-08-03T04:37:54.492Z,20.80
2017-08-03T04:40:22.780Z,20.90
2017-08-03T04:42:51.099Z,20.90
2017-08-03T04:45:19.451Z,21.00
2017-08-03T04:47:48.138Z,21.00
2017-08-03T04:50:16.424Z,21.00
2017-08-03T04:52:44.758Z,21.00
2017-08-03T04:55:13.820Z,21.10
2017-08-03T04:57:42.143Z,21.10
2017-08-03T05:00:11.191Z,21.10
2017-08-03T05:02:39.520Z,21.10
2017-08-03T05:05:07.806Z,21.20
2017-08-03T05:07:36.136Z,21.30
2017-08-03T05:10:05.220Z,21.20
2017-08-03T05:12:33.534Z,21.20
2017-08-03T05:15:01.855Z,21.20
2017-08-03T05:17:30.190Z,21.30
2017-08-03T05:19:58.516Z,21.40
2017-08-03T05:22:26.859Z,21.40
2017-08-03T05:24:55.193Z,21.40
2017-08-03T05:27:23.474Z,21.40
2017-08-03T05:29:51.815Z,21.40
2017-08-03T05:32:20.215Z,21.40
2017-08-03T05:34:48.516Z,21.40
2017-08-03T05:37:16.836Z,21.40
2017-08-03T05:39:45.118Z,21.50
2017-08-03T05:42:13.479Z,21.60
2017-08-03T05:44:41.772Z,21.60
2017-08-03T05:47:10.091Z,21.70
2017-08-03T05:49:38.424Z,21.80
2017-08-03T05:52:06.710Z,21.80
2017-08-03T05:54:34.994Z,21.90
2017-08-03T05:57:03.348Z,21.80
2017-08-03T05:59:31.656Z,21.80
2017-08-03T06:01:59.934Z,22.00
2017-08-03T06:04:28.273Z,22.10
2017-08-03T06:06:56.666Z,22.20
2017-08-03T06:09:24.996Z,22.30
2017-08-03T06:11:53.297Z,22.30
2017-08-03T06:14:21.626Z,22.30
2017-08-03T06:16:49.945Z,22.20
2017-08-03T06:19:19.016Z,22.40
2017-08-03T06:21:47.344Z,22.30
2017-08-03T06:24:16.398Z,22.50
2017-08-03T06:26:44.687Z,22.50
2017-08-03T06:29:13.029Z,22.60
2017-08-03T06:31:42.116Z,22.90
2017-08-03T06:34:10.452Z,22.90
2017-08-03T06:36:38.798Z,23.10
2017-08-03T06:39:07.126Z,23.20
2017-08-03T06:41:35.459Z,23.40
2017-08-03T06:44:03.775Z,23.50
2017-08-03T06:46:32.067Z,23.50
2017-08-03T06:49:00.395Z,23.60
2017-08-03T06:51:28.724Z,23.60
2017-08-03T06:53:57.057Z,23.40
2017-08-03T06:56:26.102Z,23.40
2017-08-03T06:58:54.426Z,23.40
2017-08-03T07:01:22.728Z,23.50
2017-08-03T07:03:51.924Z,23.70
2017-08-03T07:06:20.310Z,23.70
2017-08-03T07:08:48.617Z,23.80
2017-08-03T07:11:17.699Z,23.90
2017-08-03T07:13:46.000Z,23.90
2017-08-03T07:16:14.327Z,24.00
2017-08-03T07:18:42.624Z,24.20
2017-08-03T07:21:10.946Z,24.50
2017-08-03T07:23:39.272Z,24.80
2017-08-03T07:26:08.340Z,25.10
2017-08-03T07:28:36.676Z,25.10
2017-08-03T07:31:05.785Z,25.20
2017-08-03T07:33:34.830Z,25.30
2017-08-03T07:36:03.172Z,25.20
2017-08-03T07:38:31.463Z,25.00
2017-08-03T07:41:00.550Z,25.30
2017-08-03T07:43:28.888Z,25.30
2017-08-03T07:45:57.189Z,25.40
2017-08-03T07:48:25.466Z,25.40
2017-08-03T07:50:53.810Z,25.30
2017-08-03T07:53:22.108Z,25.50
2017-08-03T07:55:50.442Z,25.70
2017-08-03T07:58:18.763Z,25.90
2017-08-03T08:00:47.051Z,26.10
2017-08-03T08:03:15.352Z,26.00
2017-08-03T08:05:43.685Z,26.00
2017-08-03T08:08:12.020Z,25.90
2017-08-03T08:10:40.308Z,26.00
2017-08-03T08:13:08.609Z,26.10
2017-08-03T08:15:36.923Z,26.10
2017-08-03T08:18:06.009Z,25.90
2017-08-03T08:20:34.314Z,25.90
2017-08-03T08:23:02.643Z,25.80
2017-08-03T08:25:30.964Z,25.90
2017-08-03T08:27:59.254Z,26.10
2017-08-03T08:30:27.584Z,26.30
2017-08-03T08:32:56.643Z,26.30
2017-08-03T08:35:24.981Z,26.30
2017-08-03T08:37:54.030Z,26.10
2017-08-03T08:40:22.342Z,26.00
2017-08-03T08:42:50.674Z,26.10
2017-08-03T08:45:19.715Z,26.30
2017-08-03T08:47:48.046Z,26.30
2017-08-03T08:50:16.341Z,26.20
2017-08-03T08:52:44.627Z,26.20
2017-08-03T08:55:12.948Z,26.30
2017-08-03T08:57:41.237Z,26.20
2017-08-03T09:00:09.524Z,26.30
2017-08-03T09:02:38.683Z,26.10
2017-08-03T09:05:06.964Z,26.10
2017-08-03T09:07:35.286Z,26.10
2017-08-03T09:10:03.581Z,26.00
2017-08-03T09:12:31.859Z,26.10
2017-08-03T09:15:00.175Z,26.00
2017-08-03T09:17:28.489Z,25.90
2017-08-03T09:19:56.763Z,25.80
2017-08-03T09:22:25.084Z,25.90
2017-08-03T09:24:53.400Z,25.90
2017-08-03T09:27:21.678Z,26.00
2017-08-03T09:29:49.991Z,26.10
2017-08-03T09:32:18.316Z,26.10
2017-08-03T09:34:46.612Z,26.10
2017-08-03T09:37:14.887Z,25.90
2017-08-03T09:39:43.198Z,25.90
2017-08-03T09:42:11.511Z,25.80
2017-08-03T09:44:39.844Z,25.60
2017-08-03T09:47:08.891Z,25.50
2017-08-03T09:49:37.187Z,25.50
2017-08-03T09:52:05.499Z,25.30
2017-08-03T09:54:33.790Z,25.20
2017-08-03T09:57:02.115Z,25.20
2017-08-03T09:59:30.407Z,25.20
2017-08-03T10:01:58.740Z,25.30
2017-08-03T10:04:27.031Z,25.50
2017-08-03T10:06:55.328Z,25.50
2017-08-03T10:09:23.664Z,25.50
2017-08-03T10:11:51.952Z,25.50
2017-08-03T10:14:20.279Z,25.50
2017-08-03T10:16:48.579Z,25.40
2017-08-03T10:19:16.894Z,25.40
2017-08-03T10:21:45.994Z,25.40
2017-08-03T10:24:14.293Z,25.40
2017-08-03T10:26:43.351Z,25.50
2017-08-03T10:29:11.693Z,25.40
2017-08-03T10:31:40.779Z,25.60
2017-08-03T10:34:09.099Z,25.60
2017-08-03T10:36:38.166Z,25.50
2017-08-03T10:39:06.485Z,25.50
2017-08-03T10:41:35.566Z,25.60
2017-08-03T10:44:03.869Z,25.50
2017-08-03T10:46:32.200Z,25.60
2017-08-03T10:49:00.496Z,25.70
2017-08-03T10:51:28.815Z,25.70
2017-08-03T10:53:57.098Z,25.80
2017-08-03T10:56:25.415Z,25.80
2017-08-03T10:58:53.744Z,25.80
2017-08-03T11:01:22.080Z,25.90
2017-08-03T11:03:50.407Z,25.90
2017-08-03T11:06:19.512Z,26.20
2017-08-03T11:08:48.599Z,26.10
2017-08-03T11:11:16.937Z,26.10
2017-08-03T11:13:45.269Z,26.20
2017-08-03T11:16:13.582Z,26.20
2017-08-03T11:18:41.888Z,26.10
2017-08-03T11:21:10.970Z,26.20
2017-08-03T11:23:39.251Z,26.20
2017-08-03T11:26:07.535Z,26.20
2017-08-03T11:28:35.867Z,26.40
2017-08-03T11:31:04.911Z,26.40
2017-08-03T11:33:33.191Z,26.40
2017-08-03T11:36:01.506Z,26.30
2017-08-03T11:38:29.822Z,26.30
2017-08-03T11:40:58.910Z,26.10
2017-08-03T11:43:27.250Z,26.10
2017-08-03T11:45:55.547Z,26.10
2017-08-03T11:48:23.864Z,26.10
2017-08-03T11:50:52.144Z,26.00
2017-08-03T11:53:20.451Z,25.90
2017-08-03T11:55:48.771Z,25.90
2017-08-03T11:58:17.829Z,25.90
2017-08-03T12:00:46.144Z,25.90
2017-08-03T12:03:14.459Z,25.90
2017-08-03T12:05:43.515Z,26.20
2017-08-03T12:08:11.826Z,26.20
2017-08-03T12:10:40.102Z,26.40
2017-08-03T12:13:08.387Z,26.50
2017-08-03T12:15:36.703Z,26.60
2017-08-03T12:18:05.386Z,26.70
2017-08-03T12:20:33.673Z,26.80
2017-08-03T12:23:01.997Z,27.00
2017-08-03T12:25:31.048Z,27.00
2017-08-03T12:27:59.582Z,27.00
2017-08-03T12:30:27.876Z,26.80
2017-08-03T12:32:56.168Z,26.60
2017-08-03T12:35:24.494Z,26.50
2017-08-03T12:37:52.784Z,26.50
2017-08-03T12:40:21.095Z,26.50
2017-08-03T12:42:49.375Z,26.50
2017-08-03T12:45:17.690Z,26.70
2017-08-03T12:47:45.966Z,27.00
2017-08-03T12:50:14.375Z,27.10
2017-08-03T12:52:42.668Z,27.10
2017-08-03T12:55:10.988Z,27.30
2017-08-03T12:57:40.080Z,27.20
2017-08-03T13:00:08.387Z,27.20
2017-08-03T13:02:37.434Z,27.30
2017-08-03T13:05:05.724Z,27.30
2017-08-03T13:07:34.034Z,27.50
2017-08-03T13:10:02.346Z,27.60
2017-08-03T13:12:31.390Z,27.60
2017-08-03T13:14:59.667Z,27.50
2017-08-03T13:17:27.993Z,27.60
2017-08-03T13:19:56.280Z,27.70
2017-08-03T13:22:24.572Z,27.80
2017-08-03T13:24:52.893Z,27.90
2017-08-03T13:27:21.166Z,28.00
2017-08-03T13:29:49.442Z,28.00
2017-08-03T13:32:17.755Z,28.00
2017-08-03T13:34:46.041Z,28.10
2017-08-03T13:37:14.356Z,28.40
2017-08-03T13:39:43.412Z,28.70
2017-08-03T13:42:11.732Z,28.60
2017-08-03T13:44:40.052Z,28.40
2017-08-03T13:47:08.338Z,28.30
2017-08-03T13:49:37.427Z,28.30
2017-08-03T13:52:05.716Z,28.30
2017-08-03T13:54:34.026Z,28.30
2017-08-03T13:57:02.351Z,28.20
2017-08-03T13:59:30.640Z,28.30
2017-08-03T14:01:58.923Z,28.40
2017-08-03T14:04:27.244Z,28.40
2017-08-03T14:06:55.564Z,28.40
2017-08-03T14:09:24.606Z,28.70
2017-08-03T14:11:53.031Z,28.60
2017-08-03T14:14:21.333Z,28.60
2017-08-03T14:16:49.607Z,28.50
2017-08-03T14:19:17.933Z,28.30
2017-08-03T14:21:46.984Z,28.50
2017-08-03T14:24:15.303Z,28.40
2017-08-03T14:26:43.586Z,28.70
2017-08-03T14:29:11.985Z,28.80
2017-08-03T14:31:40.268Z,29.10
2017-08-03T14:34:08.547Z,29.20
2017-08-03T14:36:36.872Z,29.10
2017-08-03T14:39:05.955Z,29.10
2017-08-03T14:41:34.239Z,29.10
2017-08-03T14:44:02.519Z,29.00
2017-08-03T14:46:30.849Z,29.00
2017-08-03T14:49:00.226Z,28.80
2017-08-03T14:51:28.534Z,28.80
2017-08-03T14:53:56.864Z,28.90
2017-08-03T14:56:25.139Z,29.10
2017-08-03T14:58:53.460Z,29.20
2017-08-03T15:01:21.748Z,29.20
2017-08-03T15:03:50.054Z,29.30
2017-08-03T15:06:18.330Z,29.40
2017-08-03T15:08:46.658Z,29.40
2017-08-03T15:11:14.967Z,29.80
2017-08-03T15:13:44.010Z,31.20
2017-08-03T15:16:12.337Z,31.20
2017-08-03T15:18:40.669Z,31.90
2017-08-03T15:21:08.955Z,32.60
2017-08-03T15:23:37.705Z,32.90
2017-08-03T15:26:06.198Z,33.70
2017-08-03T15:28:34.499Z,33.80
2017-08-03T15:31:02.810Z,34.50
2017-08-03T15:33:31.892Z,34.90
2017-08-03T15:36:00.172Z,34.80
2017-08-03T15:38:28.581Z,35.20
2017-08-03T15:40:56.955Z,34.50
2017-08-03T15:43:25.236Z,33.30
2017-08-03T15:45:53.542Z,32.20
2017-08-03T15:48:21.822Z,31.10
2017-08-03T15:50:50.142Z,30.40
2017-08-03T15:53:19.196Z,29.40
2017-08-03T15:55:47.481Z,29.30
2017-08-03T15:58:15.801Z,29.00
2017-08-03T16:00:44.124Z,28.60
2017-08-03T16:03:13.166Z,27.90
2017-08-03T16:05:41.456Z,27.90
2017-08-03T16:08:09.786Z,27.70
2017-08-03T16:10:38.058Z,27.40
2017-08-03T16:13:06.409Z,27.30
2017-08-03T16:15:34.702Z,27.10
2017-08-03T16:18:02.988Z,27.00
2017-08-03T16:20:31.319Z,26.90
2017-08-03T16:22:59.612Z,26.70
2017-08-03T16:25:27.927Z,26.60
2017-08-03T16:27:57.016Z,25.80
2017-08-03T16:30:25.403Z,25.80
2017-08-03T16:32:53.794Z,25.20
2017-08-03T16:35:22.200Z,24.20
2017-08-03T16:37:50.501Z,23.30
2017-08-03T16:40:18.810Z,22.90
2017-08-03T16:42:47.100Z,22.50
2017-08-03T16:45:15.420Z,22.20
2017-08-03T16:47:44.635Z,22.20
2017-08-03T16:50:12.915Z,22.40
2017-08-03T16:52:41.236Z,23.30
2017-08-03T16:55:09.511Z,23.80
2017-08-03T16:57:37.786Z,24.10
2017-08-03T17:00:06.098Z,24.10
2017-08-03T17:02:34.378Z,24.00
2017-08-03T17:05:02.689Z,23.90
2017-08-03T17:07:30.980Z,24.00
2017-08-03T17:09:59.287Z,23.70
2017-08-03T17:12:28.354Z,23.20
2017-08-03T17:14:56.759Z,23.20
2017-08-03T17:17:25.048Z,23.00
2017-08-03T17:19:53.366Z,22.90
2017-08-03T17:22:22.471Z,22.30
2017-08-03T17:24:50.744Z,22.30
2017-08-03T17:27:19.076Z,22.20
2017-08-03T17:29:47.366Z,21.90
2017-08-03T17:32:15.995Z,22.00
2017-08-03T17:34:44.312Z,22.00
2017-08-03T17:37:12.624Z,22.20
2017-08-03T17:39:40.938Z,22.20
2017-08-03T17:42:09.272Z,21.80
2017-08-03T17:44:37.550Z,21.90
2017-08-03T17:47:05.876Z,22.00
2017-08-03T17:49:34.946Z,22.00
2017-08-03T17:52:03.222Z,22.00
2017-08-03T17:54:31.560Z,22.10
2017-08-03T17:57:00.621Z,22.20
2017-08-03T17:59:28.909Z,22.20
2017-08-03T18:01:57.229Z,22.20
2017-08-03T18:04:25.521Z,22.10
2017-08-03T18:06:53.832Z,22.10
2017-08-03T18:09:22.874Z,22.00
2017-08-03T18:11:51.194Z,22.00
2017-08-03T18:14:19.507Z,22.00
2017-08-03T18:16:47.795Z,21.90
2017-08-03T18:19:16.121Z,22.00
2017-08-03T18:21:44.431Z,22.10
2017-08-03T18:24:12.716Z,22.10
2017-08-03T18:26:41.041Z,22.20
2017-08-03T18:29:09.314Z,22.20
2017-08-03T18:31:37.605Z,22.20
2017-08-03T18:34:05.964Z,22.10
2017-08-03T18:36:34.296Z,22.10
2017-08-03T18:39:02.613Z,22.00
2017-08-03T18:41:31.683Z,22.00
2017-08-03T18:43:59.992Z,22.00
2017-08-03T18:46:29.052Z,21.80
2017-08-03T18:48:57.385Z,21.80
2017-08-03T18:51:25.679Z,21.60
2017-08-03T18:53:53.987Z,21.50
2017-08-03T18:56:22.343Z,21.40
2017-08-03T18:58:50.659Z,21.30
2017-08-03T19:01:19.850Z,21.60
2017-08-03T19:03:48.176Z,21.60
2017-08-03T19:06:16.497Z,21.40
2017-08-03T19:08:44.806Z,21.30
2017-08-03T19:11:13.102Z,21.30
2017-08-03T19:13:41.444Z,21.40
2017-08-03T19:16:09.743Z,21.40
2017-08-03T19:18:38.073Z,21.50
2017-08-03T19:21:06.373Z,21.40
2017-08-03T19:23:35.458Z,21.40
2017-08-03T19:26:03.774Z,21.40
2017-08-03T19:28:32.842Z,21.50
2017-08-03T19:31:01.164Z,21.50
2017-08-03T19:33:30.274Z,21.40
2017-08-03T19:35:59.327Z,21.30
2017-08-03T19:38:27.728Z,21.30
2017-08-03T19:40:56.028Z,21.40
2017-08-03T19:43:24.314Z,21.40
2017-08-03T19:45:52.634Z,21.40
2017-08-03T19:48:20.954Z,21.40
2017-08-03T19:50:49.279Z,21.40
2017-08-03T19:53:17.576Z,21.40
2017-08-03T19:55:45.869Z,21.40
2017-08-03T19:58:14.188Z,21.40
2017-08-03T20:00:43.256Z,21.40
2017-08-03T20:03:11.584Z,21.30
2017-08-03T20:05:41.633Z,21.40
2017-08-03T20:08:10.719Z,21.40
2017-08-03T20:10:44.123Z,21.30
2017-08-03T20:13:18.418Z,21.40
2017-08-03T20:15:46.712Z,21.40
2017-08-03T20:18:15.005Z,21.30
2017-08-03T20:20:43.319Z,21.30
2017-08-03T20:23:11.668Z,21.30
2017-08-03T20:25:41.955Z,21.20
2017-08-03T20:28:11.723Z,21.20
2017-08-03T20:30:40.015Z,21.20
2017-08-03T20:33:08.307Z,21.20
2017-08-03T20:35:36.646Z,21.10
2017-08-03T20:38:04.953Z,21.10
2017-08-03T20:40:34.052Z,21.00
2017-08-03T20:43:03.164Z,21.00
2017-08-03T20:45:32.228Z,21.00
2017-08-03T20:48:00.515Z,21.00
2017-08-03T20:50:28.893Z,21.00
2017-08-03T20:52:57.232Z,21.00
2017-08-03T20:55:25.909Z,21.00
2017-08-03T20:57:54.229Z,20.90
2017-08-03T21:00:23.319Z,20.80
2017-08-03T21:02:51.648Z,20.80
2017-08-03T21:05:19.964Z,20.70
2017-08-03T21:07:48.264Z,20.60
2017-08-03T21:10:16.584Z,20.60
2017-08-03T21:12:44.962Z,20.60
2017-08-03T21:15:13.259Z,20.50
2017-08-03T21:17:41.577Z,20.50
2017-08-03T21:20:10.619Z,20.40
2017-08-03T21:22:38.940Z,20.40
2017-08-03T21:25:08.048Z,20.40
2017-08-03T21:27:36.452Z,20.30
2017-08-03T21:30:04.778Z,20.40
2017-08-03T21:32:33.140Z,20.30
2017-08-03T21:35:01.451Z,20.20
2017-08-03T21:37:37.163Z,20.20
2017-08-03T21:40:07.923Z,20.10
2017-08-03T21:45:20.164Z,19.90
2017-08-03T21:47:48.470Z,20.00
2017-08-03T21:50:16.789Z,19.90
2017-08-03T21:52:45.095Z,19.90
2017-08-03T21:55:14.163Z,19.90
2017-08-03T21:57:42.480Z,19.80
2017-08-03T22:00:11.536Z,19.70
2017-08-03T22:02:39.959Z,19.70
2017-08-03T22:05:08.238Z,19.70
2017-08-03T22:07:36.649Z,19.70
2017-08-03T22:10:04.935Z,19.70
2017-08-03T22:12:33.316Z,19.60
2017-08-03T22:15:01.607Z,19.50
2017-08-03T22:17:29.933Z,19.50
2017-08-03T22:19:58.224Z,19.40
2017-08-03T22:22:26.531Z,19.40
2017-08-03T22:24:54.876Z,19.40
2017-08-03T22:27:23.935Z,19.30
2017-08-03T22:29:52.262Z,19.30
2017-08-03T22:32:20.646Z,19.30
2017-08-03T22:34:49.053Z,19.10
2017-08-03T22:37:17.444Z,19.10
2017-08-03T22:39:45.726Z,19.10
2017-08-03T22:42:14.031Z,19.20
2017-08-03T22:44:43.119Z,19.20
2017-08-03T22:47:11.434Z,19.20
2017-08-03T22:49:40.489Z,19.10
2017-08-03T22:52:08.803Z,19.10
2017-08-03T22:54:37.088Z,19.10
2017-08-03T22:57:05.484Z,19.10
2017-08-03T22:59:33.784Z,19.00
2017-08-03T23:02:02.098Z,19.00
2017-08-03T23:04:31.148Z,19.00
2017-08-03T23:06:59.475Z,19.00
2017-08-03T23:09:27.855Z,19.00
2017-08-03T23:11:56.151Z,19.00
2017-08-03T23:14:24.481Z,19.10
2017-08-03T23:16:52.804Z,19.10
2017-08-03T23:19:21.131Z,19.00
2017-08-03T23:21:49.416Z,19.00
2017-08-03T23:24:17.790Z,18.90
2017-08-03T23:26:46.081Z,18.90
2017-08-03T23:29:14.390Z,18.80
2017-08-03T23:31:43.475Z,18.90
2017-08-03T23:34:11.773Z,18.90
2017-08-03T23:36:40.101Z,18.90
2017-08-03T23:39:08.388Z,18.80
2017-08-03T23:41:36.701Z,18.90
2017-08-03T23:44:05.004Z,18.60
2017-08-03T23:46:33.279Z,18.30
2017-08-03T23:49:01.616Z,18.30
2017-08-03T23:51:29.937Z,18.30
2017-08-03T23:53:58.209Z,18.50
2017-08-03T23:56:27.303Z,18.40
2017-08-03T23:58:55.623Z,18.40
